sensor_id;sensor_type;location;lat;lon;timestamp;temperature;humidity
27870;DHT22;15225;50.730;4.244;2022-09-21T18:05:35;14.40;99.90
27870;DHT22;15225;50.730;4.244;2022-09-21T18:08:07;13.70;1.00
27870;DHT22;15225;50.730;4.244;2022-09-21T18:10:33;14.00;99.90
27870;DHT22;15225;50.730;4.244;2022-09-21T18:18:43;15.00;1.00
27870;DHT22;15225;50.730;4.244;2022-09-21T18:21:19;15.10;99.90
27870;DHT22;15225;50.730;4.244;2022-09-21T18:26:41;15.30;1.00
27870;DHT22;15225;50.730;4.244;2022-09-21T18:29:27;15.30;99.90
27870;DHT22;15225;50.730;4.244;2022-09-21T18:40:22;15.50;1.00
27870;DHT22;15225;50.730;4.244;2022-09-21T18:45:36;15.60;1.00
27870;DHT22;15225;50.730;4.244;2022-09-21T18:48:20;15.50;1.00
27870;DHT22;15225;50.730;4.244;2022-09-21T18:53:53;15.50;1.00
27870;DHT22;15225;50.730;4.244;2022-09-21T18:56:25;15.50;1.00
27870;DHT22;15225;50.730;4.244;2022-09-21T18:58:52;15.40;99.90
27870;DHT22;15225;50.730;4.244;2022-09-21T19:01:18;15.40;99.90
27870;DHT22;15225;50.730;4.244;2022-09-21T19:03:48;15.30;1.00
27870;DHT22;15225;50.730;4.244;2022-09-21T19:11:52;15.20;8.20
27870;DHT22;15225;50.730;4.244;2022-09-21T19:14:50;15.10;99.90
27870;DHT22;15225;50.730;4.244;2022-09-21T19:18:01;15.10;89.20
27870;DHT22;15225;50.730;4.244;2022-09-21T19:35:32;14.50;1.00
27870;DHT22;15225;50.730;4.244;2022-09-21T19:38:00;14.60;1.00
27870;DHT22;15225;50.730;4.244;2022-09-21T19:40:36;14.70;99.90
27870;DHT22;15225;50.730;4.244;2022-09-21T19:43:57;14.60;99.90
27870;DHT22;15225;50.730;4.244;2022-09-21T19:50:09;14.50;1.00
27870;DHT22;15225;50.730;4.244;2022-09-21T19:52:36;14.50;1.00
27870;DHT22;15225;50.730;4.244;2022-09-21T19:55:12;14.40;99.90
27870;DHT22;15225;50.730;4.244;2022-09-21T19:57:57;14.30;99.90
27870;DHT22;15225;50.730;4.244;2022-09-21T20:00:42;14.30;99.90
27870;DHT22;15225;50.730;4.244;2022-09-21T20:03:35;14.30;1.00
27870;DHT22;15225;50.730;4.244;2022-09-21T20:06:33;14.20;99.90
27870;DHT22;15225;50.730;4.244;2022-09-21T20:09:27;14.20;99.90
27870;DHT22;15225;50.730;4.244;2022-09-21T20:12:16;14.20;99.90
27870;DHT22;15225;50.730;4.244;2022-09-21T20:17:32;14.20;93.50
27870;DHT22;15225;50.730;4.244;2022-09-21T20:20:12;14.10;99.90
27870;DHT22;15225;50.730;4.244;2022-09-21T20:22:40;14.10;99.90
27870;DHT22;15225;50.730;4.244;2022-09-21T20:25:18;14.20;1.00
27870;DHT22;15225;50.730;4.244;2022-09-21T20:27:52;14.10;1.00
27870;DHT22;15225;50.730;4.244;2022-09-21T20:30:22;13.90;99.90
27870;DHT22;15225;50.730;4.244;2022-09-21T20:32:51;14.10;99.90
27870;DHT22;15225;50.730;4.244;2022-09-21T20:35:24;14.10;1.00
27870;DHT22;15225;50.730;4.244;2022-09-21T20:37:51;14.10;99.90
27870;DHT22;15225;50.730;4.244;2022-09-21T20:40:17;14.10;1.00
27870;DHT22;15225;50.730;4.244;2022-09-21T20:42:44;14.20;99.90
27870;DHT22;15225;50.730;4.244;2022-09-21T20:45:12;14.20;99.90
27870;DHT22;15225;50.730;4.244;2022-09-21T20:47:38;14.10;99.90
27870;DHT22;15225;50.730;4.244;2022-09-21T20:50:05;14.00;1.00
27870;DHT22;15225;50.730;4.244;2022-09-21T20:52:36;14.00;99.90
27870;DHT22;15225;50.730;4.244;2022-09-21T20:55:02;14.00;99.90
27870;DHT22;15225;50.730;4.244;2022-09-21T20:57:28;14.00;99.90
27870;DHT22;15225;50.730;4.244;2022-09-21T20:59:53;14.00;1.00
27870;DHT22;15225;50.730;4.244;2022-09-21T21:02:19;13.80;99.90
27870;DHT22;15225;50.730;4.244;2022-09-21T21:04:45;13.60;1.00
27870;DHT22;15225;50.730;4.244;2022-09-21T21:07:10;13.80;99.90
27870;DHT22;15225;50.730;4.244;2022-09-21T21:09:36;13.70;99.90
27870;DHT22;15225;50.730;4.244;2022-09-21T21:12:03;13.70;99.90
27870;DHT22;15225;50.730;4.244;2022-09-21T21:14:29;13.80;99.90
27870;DHT22;15225;50.730;4.244;2022-09-21T21:16:55;13.70;18.40
27870;DHT22;15225;50.730;4.244;2022-09-21T21:19:21;13.60;99.90
27870;DHT22;15225;50.730;4.244;2022-09-21T21:21:46;13.60;99.90
27870;DHT22;15225;50.730;4.244;2022-09-21T21:24:12;13.50;99.90
27870;DHT22;15225;50.730;4.244;2022-09-21T21:26:56;13.50;1.00
27870;DHT22;15225;50.730;4.244;2022-09-21T21:29:23;13.40;99.90
27870;DHT22;15225;50.730;4.244;2022-09-21T21:31:49;13.40;99.90
